Terminal Aerodrome Forecast
Issued by NWS

Current Version | Previous Version | Graphics & Text | Print | Product List | Glossary On
Versions: 1 2 3 4 5 6 7 8 9 10 11 12 13 14 15 16 17 18 19 20 21 22 23 24 25 26 27 28 29 30 31
377
FTUS41 KILN 200537
TAFLUK
TAF
KLUK 200537Z 2006/2106 00000KT 1SM BR OVC007
      TEMPO 2006/2010 1/2SM FG VV002
     FM201000 00000KT 2SM BR OVC012
      TEMPO 2010/2013 1SM BR OVC004
     FM201300 14005KT P6SM BKN050
     FM201900 18005KT P6SM VCSH SCT050 BKN200
      TEMPO 2020/2022 3SM -TSRA BR BKN030CB OVC050=

USA.gov is the U.S. government's official web portal to all federal, state and local government web resources and services.